createdAt,value
2022-10-06T00:03:18.347Z,68.58
2022-10-06T00:08:41.063Z,68.50
2022-10-06T00:14:01.824Z,68.74
2022-10-06T00:19:22.478Z,68.66
2022-10-06T00:24:43.041Z,68.48
2022-10-06T00:30:05.409Z,68.62
2022-10-06T00:35:28.190Z,68.40
2022-10-06T00:40:50.939Z,68.10
2022-10-06T00:46:34.223Z,68.27
2022-10-06T00:52:00.106Z,68.36
2022-10-06T00:57:21.079Z,68.11
2022-10-06T01:02:46.685Z,68.28
2022-10-06T01:08:08.895Z,68.20
2022-10-06T01:13:30.635Z,68.03
2022-10-06T01:18:55.568Z,67.97
2022-10-06T01:24:18.591Z,68.00
2022-10-06T01:29:40.631Z,68.12
2022-10-06T01:35:01.419Z,68.05
2022-10-06T01:40:23.243Z,68.06
2022-10-06T01:45:43.845Z,67.93
2022-10-06T01:51:04.557Z,68.00
2022-10-06T01:56:25.152Z,68.16
2022-10-06T02:01:45.914Z,67.95
2022-10-06T02:07:07.572Z,68.09
2022-10-06T02:12:35.740Z,67.71
2022-10-06T02:17:56.421Z,68.18
2022-10-06T02:23:20.684Z,67.91
2022-10-06T02:28:41.386Z,67.97
2022-10-06T02:34:05.758Z,68.22
2022-10-06T02:39:26.939Z,68.11
2022-10-06T02:44:47.604Z,68.25
2022-10-06T02:50:08.694Z,68.30
2022-10-06T02:55:31.275Z,68.08
2022-10-06T03:00:53.779Z,68.16
2022-10-06T03:06:23.344Z,68.27
2022-10-06T03:11:58.631Z,68.20
2022-10-06T03:17:34.301Z,68.44
2022-10-06T03:22:55.014Z,68.41
2022-10-06T03:28:17.120Z,68.51
2022-10-06T03:33:38.376Z,68.53
2022-10-06T03:39:00.222Z,68.48
2022-10-06T03:44:22.799Z,68.54
2022-10-06T03:49:44.897Z,68.63
2022-10-06T03:55:07.417Z,68.93
2022-10-06T04:00:28.386Z,69.21
2022-10-06T04:05:54.139Z,68.93
2022-10-06T04:11:29.524Z,68.62
2022-10-06T04:16:51.148Z,68.63
2022-10-06T04:22:19.446Z,68.71
2022-10-06T04:27:40.936Z,68.74
2022-10-06T04:33:07.448Z,68.50
2022-10-06T04:38:30.003Z,68.77
2022-10-06T04:43:51.785Z,68.67
2022-10-06T04:49:19.485Z,68.88
2022-10-06T04:54:42.049Z,68.73
2022-10-06T05:00:22.179Z,68.65
2022-10-06T05:05:43.372Z,68.55
2022-10-06T05:11:07.621Z,68.92
2022-10-06T05:16:30.711Z,69.22
2022-10-06T05:21:52.429Z,69.14
2022-10-06T05:27:17.882Z,69.18
2022-10-06T05:32:38.868Z,69.40
2022-10-06T05:38:00.448Z,70.03
2022-10-06T05:43:21.120Z,70.15
2022-10-06T05:48:52.411Z,70.08
2022-10-06T05:54:15.702Z,70.12
2022-10-06T05:59:36.940Z,70.02
2022-10-06T06:04:59.049Z,70.27
2022-10-06T06:10:20.147Z,70.18
2022-10-06T06:15:59.283Z,70.14
2022-10-06T06:21:21.310Z,70.27
2022-10-06T06:26:42.261Z,70.47
2022-10-06T06:32:02.868Z,70.60
2022-10-06T06:37:23.559Z,70.05
2022-10-06T06:42:44.384Z,70.26
2022-10-06T06:48:28.615Z,70.18
2022-10-06T06:53:53.664Z,70.37
2022-10-06T06:59:14.645Z,70.32
2022-10-06T07:04:38.435Z,70.36
2022-10-06T07:10:02.155Z,70.46
2022-10-06T07:15:44.318Z,70.63
2022-10-06T07:21:29.200Z,70.35
2022-10-06T07:26:50.197Z,70.23
2022-10-06T07:32:10.878Z,70.44
2022-10-06T07:37:31.700Z,70.41
2022-10-06T07:42:53.681Z,70.45
2022-10-06T07:48:38.067Z,70.41
2022-10-06T07:53:58.756Z,70.17
2022-10-06T08:00:02.098Z,69.83
2022-10-06T08:05:32.440Z,70.00
2022-10-06T08:10:55.571Z,69.78
2022-10-06T08:16:19.688Z,69.55
2022-10-06T08:21:40.536Z,69.62
2022-10-06T08:27:01.387Z,69.56
2022-10-06T08:32:23.727Z,69.58
2022-10-06T08:37:45.999Z,69.50
2022-10-06T08:43:15.187Z,69.39
2022-10-06T08:48:38.851Z,69.62
2022-10-06T08:54:11.319Z,69.17
2022-10-06T08:59:36.660Z,68.62
2022-10-06T09:05:01.368Z,68.56
2022-10-06T09:10:41.144Z,68.12
2022-10-06T09:16:07.592Z,68.64
2022-10-06T09:21:37.657Z,68.95
2022-10-06T09:26:59.108Z,68.84
2022-10-06T09:32:23.105Z,69.07
2022-10-06T09:38:08.229Z,68.96
2022-10-06T09:43:31.269Z,68.81
2022-10-06T09:49:21.077Z,68.57
2022-10-06T09:54:43.770Z,68.30
2022-10-06T10:00:30.918Z,68.31
2022-10-06T10:05:57.063Z,68.18
2022-10-06T10:11:41.546Z,68.00
2022-10-06T10:17:14.355Z,67.58
2022-10-06T10:22:40.951Z,67.71
2022-10-06T10:28:11.071Z,67.53
2022-10-06T10:34:12.887Z,67.57
2022-10-06T10:40:01.746Z,67.55
2022-10-06T10:45:34.733Z,67.41
2022-10-06T10:51:03.550Z,67.50
2022-10-06T10:56:27.147Z,67.52
2022-10-06T11:02:03.418Z,66.98
2022-10-06T11:07:37.023Z,66.88
2022-10-06T11:13:10.309Z,67.22
2022-10-06T11:19:10.137Z,68.29
2022-10-06T11:24:37.672Z,68.22
2022-10-06T11:30:19.716Z,68.41
2022-10-06T11:35:44.737Z,68.53
2022-10-06T11:41:33.041Z,68.21
2022-10-06T11:46:58.331Z,68.61
2022-10-06T11:52:19.053Z,68.64
2022-10-06T11:57:58.375Z,68.75
2022-10-06T12:03:28.512Z,68.67
2022-10-06T12:08:49.513Z,68.79
2022-10-06T12:20:39.043Z,68.77
2022-10-06T12:26:20.450Z,69.02
2022-10-06T12:31:46.017Z,68.57
2022-10-06T12:37:40.388Z,69.06
2022-10-06T12:43:19.969Z,69.09
2022-10-06T12:48:54.382Z,68.84
2022-10-06T12:54:20.976Z,68.79
2022-10-06T12:59:41.910Z,68.79
2022-10-06T13:05:11.809Z,68.96
2022-10-06T13:10:33.198Z,68.59
2022-10-06T13:16:00.698Z,68.19
2022-10-06T13:21:22.125Z,68.60
2022-10-06T13:26:42.996Z,68.42
2022-10-06T13:32:07.865Z,68.07
2022-10-06T13:37:28.787Z,68.18
2022-10-06T13:42:49.993Z,68.14
2022-10-06T13:48:18.851Z,67.95
2022-10-06T13:53:40.272Z,68.23
2022-10-06T13:59:29.171Z,68.50
2022-10-06T14:05:20.058Z,67.62
2022-10-06T14:10:41.324Z,67.73
2022-10-06T14:16:06.313Z,67.95
2022-10-06T14:21:31.660Z,67.06
2022-10-06T14:26:56.090Z,66.25
2022-10-06T14:32:18.026Z,66.73
2022-10-06T14:37:38.816Z,66.66
2022-10-06T14:42:59.326Z,66.92
2022-10-06T14:48:20.082Z,66.76
2022-10-06T14:53:40.818Z,66.75
2022-10-06T14:59:05.917Z,67.01
2022-10-06T15:04:28.035Z,66.46
2022-10-06T15:09:49.052Z,66.73
2022-10-06T15:15:10.256Z,67.05
2022-10-06T15:20:30.973Z,66.96
2022-10-06T15:26:11.107Z,67.31
2022-10-06T15:31:34.777Z,66.61
2022-10-06T15:36:57.079Z,66.99
2022-10-06T15:42:21.652Z,67.08
2022-10-06T15:47:42.636Z,67.03
2022-10-06T15:53:03.609Z,67.22
2022-10-06T15:58:24.787Z,66.99
2022-10-06T16:03:45.486Z,66.67
2022-10-06T16:09:11.261Z,66.43
2022-10-06T16:14:32.318Z,66.67
2022-10-06T16:19:53.298Z,66.82
2022-10-06T16:25:14.333Z,66.48
2022-10-06T16:30:35.442Z,66.46
2022-10-06T16:35:57.984Z,66.81
2022-10-06T16:41:19.804Z,66.90
2022-10-06T16:46:40.833Z,66.51
2022-10-06T16:52:01.638Z,66.82
2022-10-06T16:57:22.232Z,66.31
2022-10-06T17:02:43.017Z,66.24
2022-10-06T17:08:03.655Z,66.10
2022-10-06T17:13:24.566Z,66.77
2022-10-06T17:18:53.221Z,66.76
2022-10-06T17:24:14.578Z,66.68
2022-10-06T17:29:35.391Z,66.58
2022-10-06T17:34:56.109Z,66.72
2022-10-06T17:40:19.780Z,66.57
2022-10-06T17:45:40.584Z,66.60
2022-10-06T17:51:01.414Z,66.66
2022-10-06T17:56:24.977Z,66.70
2022-10-06T18:01:46.065Z,66.48
2022-10-06T18:07:10.183Z,66.33
2022-10-06T18:12:36.218Z,66.48
2022-10-06T18:17:57.121Z,66.55
2022-10-06T18:23:17.679Z,66.56
2022-10-06T18:28:39.775Z,66.93
2022-10-06T18:39:41.945Z,66.49
2022-10-06T18:45:22.398Z,66.53
2022-10-06T18:50:43.459Z,66.24
2022-10-06T18:56:07.032Z,66.28
2022-10-06T19:01:29.984Z,66.76
2022-10-06T19:06:53.053Z,66.12
2022-10-06T19:12:14.567Z,66.59
2022-10-06T19:17:35.879Z,66.27
2022-10-06T19:22:57.386Z,66.46
2022-10-06T19:28:18.283Z,66.57
2022-10-06T19:33:39.597Z,66.42
2022-10-06T19:39:07.573Z,65.79
2022-10-06T19:44:29.024Z,66.16
2022-10-06T19:49:49.706Z,66.09
2022-10-06T19:55:10.892Z,66.51
2022-10-06T20:00:32.053Z,65.99
2022-10-06T20:05:53.116Z,66.00
2022-10-06T20:11:18.263Z,66.48
2022-10-06T20:16:41.845Z,65.99
2022-10-06T20:22:02.913Z,65.98
2022-10-06T20:27:23.793Z,65.81
2022-10-06T20:32:44.637Z,66.58
2022-10-06T20:38:08.947Z,66.35
2022-10-06T20:43:30.173Z,65.96
2022-10-06T20:48:52.328Z,65.56
2022-10-06T20:54:14.411Z,66.06
2022-10-06T20:59:35.677Z,65.48
2022-10-06T21:04:57.542Z,65.83
2022-10-06T21:10:18.333Z,65.67
2022-10-06T21:15:45.374Z,65.52
2022-10-06T21:21:07.869Z,65.53
2022-10-06T21:26:28.654Z,65.50
2022-10-06T21:31:49.344Z,65.74
2022-10-06T21:37:10.599Z,65.38
2022-10-06T21:42:31.378Z,65.13
2022-10-06T21:47:52.188Z,65.74
2022-10-06T21:53:12.840Z,65.36
2022-10-06T21:58:33.734Z,65.67
2022-10-06T22:03:55.831Z,65.99
2022-10-06T22:09:20.346Z,65.96
2022-10-06T22:14:41.441Z,66.43
2022-10-06T22:20:02.099Z,65.51
2022-10-06T22:25:22.903Z,65.45
2022-10-06T22:30:43.651Z,65.57
2022-10-06T22:36:05.481Z,65.72
2022-10-06T22:41:26.685Z,66.15
2022-10-06T22:46:47.767Z,65.80
2022-10-06T22:52:08.885Z,65.59
2022-10-06T22:57:29.632Z,65.44
2022-10-06T23:02:50.470Z,65.57
2022-10-06T23:08:11.046Z,65.51
2022-10-06T23:13:31.710Z,65.77
2022-10-06T23:18:52.664Z,65.95
2022-10-06T23:24:13.562Z,66.21
2022-10-06T23:29:34.318Z,65.45
2022-10-06T23:34:55.158Z,65.76
2022-10-06T23:40:15.983Z,66.19
2022-10-06T23:45:36.744Z,65.80
2022-10-06T23:51:06.972Z,65.55
2022-10-06T23:56:27.851Z,65.59
